Time;durP1;ratioP1;P1;durP2;ratioP2;P2;SDS_P1;SDS_P2;PMS_P1;PMS_P2;Temp;Humidity;BMP_temperature;BMP_pressure;BME280_temperature;BME280_humidity;BME280_pressure;Samples;Min_cycle;Max_cycle;Signal;HPM_P1;HPM_P2
2021/01/05 00:01:07;;;;;;;46.30;29.15;;;;;;;;;;5075943;28;20043;-66
2021/01/05 00:03:33;;;;;;;43.83;27.23;;;;;;;;;;5057887;28;20115;-67
2021/01/05 00:05:58;;;;;;;52.88;32.88;;;;;;;;;;5076144;28;20045;-67
2021/01/05 00:08:24;;;;;;;39.63;25.05;;;;;;;;;;5075690;28;20032;-68
2021/01/05 00:10:49;;;;;;;40.28;25.42;;;;;;;;;;5075724;28;20037;-68
2021/01/05 00:13:15;;;;;;;33.33;20.30;;;;;;;;;;5075579;28;20066;-68
2021/01/05 00:15:40;;;;;;;33.85;19.73;;;;;;;;;;5075422;28;20124;-67
2021/01/05 00:18:06;;;;;;;35.05;21.73;;;;;;;;;;5075535;28;20031;-66
2021/01/05 00:20:32;;;;;;;32.33;19.58;;;;;;;;;;5075329;28;20090;-66
2021/01/05 00:23:06;;;;;;;32.70;19.15;;;;;;;;;;5075539;28;20491;-66
2021/01/05 00:25:33;;;;;;;32.58;20.70;;;;;;;;;;5075335;28;20120;-66
2021/01/05 00:27:59;;;;;;;31.50;21.27;;;;;;;;;;5075082;28;20036;-66
2021/01/05 00:30:25;;;;;;;33.75;19.40;;;;;;;;;;5057543;28;20047;-66
2021/01/05 00:32:52;;;;;;;28.95;18.90;;;;;;;;;;5074927;28;20368;-67
2021/01/05 00:35:19;;;;;;;29.40;19.42;;;;;;;;;;5075269;28;20037;-67
2021/01/05 00:37:47;;;;;;;32.67;20.33;;;;;;;;;;5075005;28;20033;-67
2021/01/05 00:40:13;;;;;;;35.75;22.52;;;;;;;;;;5075405;28;20102;-67
2021/01/05 00:42:39;;;;;;;33.40;20.05;;;;;;;;;;5072783;28;20487;-67
2021/01/05 00:45:05;;;;;;;31.60;18.75;;;;;;;;;;5074856;28;20044;-67
2021/01/05 00:47:33;;;;;;;31.73;18.95;;;;;;;;;;5074887;28;20060;-67
2021/01/05 00:49:59;;;;;;;36.22;21.08;;;;;;;;;;5074986;28;20063;-66
2021/01/05 00:52:24;;;;;;;29.00;19.08;;;;;;;;;;5073498;28;20029;-66
2021/01/05 00:54:50;;;;;;;28.48;18.33;;;;;;;;;;5058090;28;20052;-66
2021/01/05 00:57:15;;;;;;;33.05;21.20;;;;;;;;;;5036639;28;20079;-66
2021/01/05 00:59:46;;;;;;;;;;;;;;;;;;5037087;28;20124;-66
2021/01/05 01:02:13;;;;;;;31.00;17.85;;;;;;;;;;5036612;28;19908;-66
2021/01/05 01:04:39;;;;;;;29.88;18.15;;;;;;;;;;5054368;28;20075;-66
2021/01/05 01:07:07;;;;;;;29.70;19.25;;;;;;;;;;5036558;28;20484;-66
2021/01/05 01:09:34;;;;;;;28.95;18.73;;;;;;;;;;5036316;28;20036;-66
2021/01/05 01:12:01;;;;;;;31.88;18.42;;;;;;;;;;5036242;28;20060;-66
2021/01/05 01:14:35;;;;;;;25.55;17.98;;;;;;;;;;5036674;28;20029;-66
2021/01/05 01:17:01;;;;;;;29.02;18.15;;;;;;;;;;5036526;28;20120;-66
2021/01/05 01:19:27;;;;;;;35.70;22.77;;;;;;;;;;5052782;28;20170;-66
2021/01/05 01:21:54;;;;;;;34.67;21.65;;;;;;;;;;5036245;28;20522;-66
2021/01/05 01:24:20;;;;;;;29.40;17.92;;;;;;;;;;5054855;28;20025;-66
2021/01/05 01:26:47;;;;;;;32.47;20.65;;;;;;;;;;5036512;28;20041;-67
2021/01/05 01:29:22;;;;;;;30.15;20.00;;;;;;;;;;5053113;28;20440;-67
2021/01/05 01:31:49;;;;;;;28.35;17.00;;;;;;;;;;5054170;28;20076;-66
2021/01/05 01:34:15;;;;;;;25.92;17.40;;;;;;;;;;5052717;28;20106;-66
2021/01/05 01:36:42;;;;;;;29.42;17.80;;;;;;;;;;5035975;28;20033;-67
2021/01/05 01:39:08;;;;;;;32.40;17.88;;;;;;;;;;5052921;28;20028;-68
2021/01/05 01:41:34;;;;;;;29.52;18.48;;;;;;;;;;5054263;28;20048;-68
2021/01/05 01:44:00;;;;;;;30.95;18.60;;;;;;;;;;5054363;28;20033;-66
2021/01/05 01:46:29;;;;;;;29.95;18.27;;;;;;;;;;5036003;28;20116;-67
2021/01/05 01:48:55;;;;;;;28.42;17.60;;;;;;;;;;5036078;28;20037;-67
2021/01/05 01:51:22;;;;;;;29.63;17.80;;;;;;;;;;5052564;28;20102;-67
2021/01/05 01:54:05;;;;;;;28.88;17.73;;;;;;;;;;5052307;28;20041;-66
2021/01/05 01:56:50;;;;;;;25.83;16.55;;;;;;;;;;5035134;28;20083;-66
2021/01/05 01:59:21;;;;;;;25.73;17.00;;;;;;;;;;5052258;28;20033;-67
2021/01/05 02:01:58;;;;;;;26.27;16.42;;;;;;;;;;5034295;28;20033;-67
2021/01/05 02:04:46;;;;;;;28.27;18.07;;;;;;;;;;5034091;28;20045;-67
2021/01/05 02:07:21;;;;;;;26.52;17.20;;;;;;;;;;5050715;28;20037;-67
2021/01/05 02:09:53;;;;;;;27.65;17.17;;;;;;;;;;5033988;28;20135;-67
2021/01/05 02:12:28;;;;;;;24.65;16.55;;;;;;;;;;5052398;28;20051;-67
2021/01/05 02:15:20;;;;;;;24.92;15.65;;;;;;;;;;5051485;28;20056;-67
2021/01/05 02:17:57;;;;;;;26.80;16.45;;;;;;;;;;5004529;28;20499;-68
2021/01/05 02:20:23;;;;;;;23.48;15.35;;;;;;;;;;5034970;28;20064;-67
2021/01/05 02:23:09;;;;;;;22.20;14.48;;;;;;;;;;5034962;28;20087;-68
2021/01/05 02:25:36;;;;;;;19.77;13.20;;;;;;;;;;5051452;28;20044;-66
2021/01/05 02:28:03;;;;;;;17.10;12.15;;;;;;;;;;5052724;28;20108;-67
2021/01/05 02:30:41;;;;;;;17.38;12.57;;;;;;;;;;5052827;28;20041;-67
2021/01/05 02:33:24;;;;;;;15.50;11.95;;;;;;;;;;5035197;28;20033;-67
2021/01/05 02:35:50;;;;;;;16.25;11.57;;;;;;;;;;5034844;28;20033;-67
2021/01/05 02:38:37;;;;;;;13.50;10.57;;;;;;;;;;5053191;28;20040;-67
2021/01/05 02:41:39;;;;;;;14.63;10.18;;;;;;;;;;5052837;28;20064;-67
2021/01/05 02:44:29;;;;;;;12.18;9.48;;;;;;;;;;5052947;28;20052;-67
2021/01/05 02:47:22;;;;;;;12.30;9.90;;;;;;;;;;5052988;28;20071;-67
2021/01/05 02:50:21;;;;;;;12.25;9.10;;;;;;;;;;5052861;28;20043;-67
2021/01/05 02:53:14;;;;;;;12.77;9.52;;;;;;;;;;5053774;28;20056;-67
2021/01/05 02:56:04;;;;;;;10.95;8.85;;;;;;;;;;5072965;28;20047;-67
2021/01/05 02:59:27;;;;;;;11.88;8.95;;;;;;;;;;5010713;28;20376;-67
2021/01/05 03:02:30;;;;;;;16.65;12.45;;;;;;;;;;5011221;28;20112;-67
2021/01/05 03:05:22;;;;;;;14.25;10.02;;;;;;;;;;5071106;28;20120;-67
2021/01/05 03:08:06;;;;;;;8.57;7.68;;;;;;;;;;5073024;28;20109;-66
2021/01/05 03:10:55;;;;;;;11.23;9.13;;;;;;;;;;5073045;28;20086;-68
2021/01/05 03:13:59;;;;;;;11.70;9.50;;;;;;;;;;5072237;28;20051;-68
2021/01/05 03:16:47;;;;;;;9.40;7.97;;;;;;;;;;5072849;28;20101;-67
2021/01/05 03:19:35;;;;;;;9.80;8.18;;;;;;;;;;5072904;28;20106;-67
2021/01/05 03:22:20;;;;;;;10.52;8.05;;;;;;;;;;5073082;28;20048;-67
2021/01/05 03:25:05;;;;;;;7.72;6.47;;;;;;;;;;5072568;28;20120;-67
2021/01/05 03:27:51;;;;;;;8.93;7.28;;;;;;;;;;5072805;28;20047;-67
2021/01/05 03:30:40;;;;;;;7.47;6.22;;;;;;;;;;5072711;28;20075;-68
2021/01/05 03:33:24;;;;;;;6.57;5.57;;;;;;;;;;5072935;28;20046;-68
2021/01/05 03:36:10;;;;;;;6.13;5.53;;;;;;;;;;5072630;28;20453;-67
2021/01/05 03:38:54;;;;;;;6.72;5.63;;;;;;;;;;5072680;28;20055;-68
2021/01/05 03:41:38;;;;;;;5.65;5.13;;;;;;;;;;5072461;28;20094;-67
2021/01/05 03:44:22;;;;;;;7.03;5.57;;;;;;;;;;5072858;28;20036;-68
2021/01/05 03:47:06;;;;;;;7.85;5.53;;;;;;;;;;5072653;28;20125;-68
2021/01/05 03:49:50;;;;;;;5.72;5.10;;;;;;;;;;5071428;28;20056;-68
2021/01/05 03:52:34;;;;;;;5.40;4.90;;;;;;;;;;5072363;28;20094;-68
2021/01/05 03:55:19;;;;;;;6.82;6.00;;;;;;;;;;5056750;28;20083;-68
2021/01/05 03:58:03;;;;;;;6.65;5.38;;;;;;;;;;5056966;28;20280;-68
2021/01/05 04:00:47;;;;;;;7.60;6.05;;;;;;;;;;5056977;28;20044;-67
2021/01/05 04:03:12;;;;;;;21.42;12.45;;;;;;;;;;5072005;28;20044;-67
2021/01/05 04:05:38;;;;;;;28.05;13.75;;;;;;;;;;5071749;28;20036;-67
2021/01/05 04:08:04;;;;;;;41.97;18.02;;;;;;;;;;5072045;28;20055;-67
2021/01/05 04:10:29;;;;;;;21.52;11.38;;;;;;;;;;5071944;28;20033;-68
2021/01/05 04:12:55;;;;;;;19.05;9.18;;;;;;;;;;5071764;28;20043;-68
2021/01/05 04:15:22;;;;;;;43.35;16.52;;;;;;;;;;5072166;28;20077;-67
2021/01/05 04:17:48;;;;;;;38.22;13.70;;;;;;;;;;5073744;28;20033;-67
2021/01/05 04:20:14;;;;;;;13.40;7.15;;;;;;;;;;5075695;28;20021;-67
2021/01/05 04:22:40;;;;;;;48.40;18.30;;;;;;;;;;5075386;28;20407;-67
2021/01/05 04:25:08;;;;;;;33.35;14.32;;;;;;;;;;5075231;28;20025;-67
2021/01/05 04:27:33;;;;;;;26.30;11.55;;;;;;;;;;5074442;28;20036;-73
2021/01/05 04:29:59;;;;;;;46.45;19.25;;;;;;;;;;5057190;28;20107;-73
2021/01/05 04:32:24;;;;;;;23.40;11.27;;;;;;;;;;5075755;28;20078;-73
2021/01/05 04:34:50;;;;;;;26.05;13.63;;;;;;;;;;5079474;28;20463;-73
2021/01/05 04:37:15;;;;;;;19.60;10.30;;;;;;;;;;5087262;28;20028;-63
2021/01/05 04:39:43;;;;;;;31.42;16.30;;;;;;;;;;5077898;28;20024;-63
2021/01/05 04:42:14;;;;;;;21.70;12.13;;;;;;;;;;5080475;28;20084;-65
2021/01/05 04:44:49;;;;;;;9.43;7.15;;;;;;;;;;5116392;28;20042;-73
2021/01/05 04:47:21;;;;;;;14.38;8.40;;;;;;;;;;5085989;28;20123;-73
2021/01/05 04:50:05;;;;;;;5.75;4.85;;;;;;;;;;5086081;28;20044;-73
2021/01/05 04:52:38;;;;;;;4.68;3.85;;;;;;;;;;5095545;28;20032;-73
2021/01/05 04:55:27;;;;;;;18.83;10.95;;;;;;;;;;5095699;28;20044;-73
2021/01/05 04:58:01;;;;;;;9.23;6.13;;;;;;;;;;5095416;28;20040;-73
2021/01/05 05:00:27;;;;;;;11.27;7.78;;;;;;;;;;5095711;28;20032;-73
2021/01/05 05:03:02;;;;;;;14.55;9.15;;;;;;;;;;5095911;28;20028;-74
2021/01/05 05:05:30;;;;;;;12.52;8.70;;;;;;;;;;5095603;28;20040;-74
2021/01/05 05:08:14;;;;;;;8.60;6.05;;;;;;;;;;5095589;28;20393;-74
2021/01/05 05:10:43;;;;;;;5.82;5.03;;;;;;;;;;5094106;28;20035;-74
2021/01/05 05:13:21;;;;;;;23.95;10.95;;;;;;;;;;5082649;28;20028;-74
2021/01/05 05:15:48;;;;;;;13.65;7.45;;;;;;;;;;5076043;28;20037;-75
2021/01/05 05:18:16;;;;;;;15.93;9.10;;;;;;;;;;5075287;28;20029;-74
2021/01/05 05:20:51;;;;;;;16.42;9.07;;;;;;;;;;5075129;28;20068;-74
2021/01/05 05:23:17;;;;;;;22.45;12.40;;;;;;;;;;5075282;28;20363;-74
2021/01/05 05:25:49;;;;;;;10.68;6.32;;;;;;;;;;5072491;28;20090;-74
2021/01/05 05:28:22;;;;;;;11.60;7.55;;;;;;;;;;5073731;28;20132;-74
2021/01/05 05:30:47;;;;;;;11.23;7.78;;;;;;;;;;5074039;28;20395;-75
2021/01/05 05:33:22;;;;;;;7.40;5.85;;;;;;;;;;5074008;28;20040;-75
2021/01/05 05:36:05;;;;;;;33.90;19.02;;;;;;;;;;5073122;28;20033;-74
2021/01/05 05:38:34;;;;;;;48.08;23.38;;;;;;;;;;5073005;28;20476;-74
2021/01/05 05:41:02;;;;;;;96.13;48.08;;;;;;;;;;5074030;28;20052;-74
2021/01/05 05:43:28;;;;;;;45.03;23.88;;;;;;;;;;5073100;28;20442;-74
2021/01/05 05:45:56;;;;;;;7.05;6.35;;;;;;;;;;5074441;28;20036;-74
2021/01/05 05:48:21;;;;;;;34.13;23.80;;;;;;;;;;5074179;28;20082;-74
2021/01/05 05:50:46;;;;;;;21.90;15.85;;;;;;;;;;5074260;28;20429;-74
2021/01/05 05:53:21;;;;;;;17.45;12.48;;;;;;;;;;5072504;28;20052;-74
2021/01/05 05:56:04;;;;;;;14.30;11.13;;;;;;;;;;5074221;28;20041;-74
2021/01/05 05:58:34;;;;;;;20.10;15.77;;;;;;;;;;5074174;28;20040;-74
2021/01/05 06:01:01;;;;;;;44.15;24.65;;;;;;;;;;5074050;28;20154;-74
2021/01/05 06:03:27;;;;;;;32.67;19.63;;;;;;;;;;5073983;28;20043;-73
2021/01/05 06:05:53;;;;;;;38.80;21.65;;;;;;;;;;5073956;28;20029;-73
2021/01/05 06:08:19;;;;;;;28.02;16.58;;;;;;;;;;5073797;28;20044;-73
2021/01/05 06:10:47;;;;;;;15.18;10.18;;;;;;;;;;5073679;28;20028;-73
2021/01/05 06:13:13;;;;;;;2.17;2.08;;;;;;;;;;5073500;28;20127;-73
2021/01/05 06:15:38;;;;;;;6.55;5.93;;;;;;;;;;5073629;28;20103;-74
2021/01/05 06:18:05;;;;;;;7.53;6.40;;;;;;;;;;5073844;28;20043;-74
2021/01/05 06:20:31;;;;;;;3.05;2.85;;;;;;;;;;5073762;28;20024;-73
2021/01/05 06:22:56;;;;;;;8.70;7.35;;;;;;;;;;5073697;28;20079;-74
2021/01/05 06:25:22;;;;;;;17.92;13.98;;;;;;;;;;5073679;28;20032;-74
2021/01/05 06:27:47;;;;;;;9.20;7.47;;;;;;;;;;5072224;28;20057;-74
2021/01/05 06:30:13;;;;;;;10.63;8.40;;;;;;;;;;5073442;28;20083;-74
2021/01/05 06:32:39;;;;;;;8.95;7.47;;;;;;;;;;5073323;28;20127;-74
2021/01/05 06:35:05;;;;;;;6.85;6.10;;;;;;;;;;5073463;28;20031;-73
2021/01/05 06:37:31;;;;;;;9.88;7.80;;;;;;;;;;5073432;28;20029;-75
2021/01/05 06:39:56;;;;;;;9.60;8.63;;;;;;;;;;5072470;28;20123;-75
2021/01/05 06:42:22;;;;;;;7.68;6.97;;;;;;;;;;5071955;28;20463;-74
2021/01/05 06:44:47;;;;;;;4.78;4.28;;;;;;;;;;5073428;28;20103;-74
2021/01/05 06:47:13;;;;;;;12.68;9.00;;;;;;;;;;5072299;28;20044;-73
2021/01/05 06:49:39;;;;;;;24.90;13.45;;;;;;;;;;5073397;28;20060;-74
2021/01/05 06:52:05;;;;;;;32.45;17.80;;;;;;;;;;5073269;28;20040;-74
2021/01/05 06:54:32;;;;;;;25.50;16.95;;;;;;;;;;5072848;28;20047;-73
2021/01/05 06:56:58;;;;;;;16.35;12.50;;;;;;;;;;5073275;28;20098;-70
2021/01/05 06:59:24;;;;;;;11.05;8.88;;;;;;;;;;5071924;28;20487;-69
2021/01/05 07:01:53;;;;;;;6.90;6.13;;;;;;;;;;5073285;28;20028;-69
2021/01/05 07:04:19;;;;;;;6.32;5.82;;;;;;;;;;5073060;28;20035;-69
2021/01/05 07:06:45;;;;;;;5.63;5.13;;;;;;;;;;5073006;28;20040;-69
2021/01/05 07:09:10;;;;;;;6.60;5.53;;;;;;;;;;5073113;28;20051;-69
2021/01/05 07:11:36;;;;;;;6.55;5.95;;;;;;;;;;5072900;28;20064;-69
2021/01/05 07:14:01;;;;;;;4.57;4.15;;;;;;;;;;5054769;28;20039;-69
2021/01/05 07:16:27;;;;;;;8.43;7.03;;;;;;;;;;5073168;28;20114;-69
2021/01/05 07:18:52;;;;;;;9.68;7.75;;;;;;;;;;5072869;28;20025;-69
2021/01/05 07:21:18;;;;;;;26.25;17.35;;;;;;;;;;5072885;28;20032;-69
2021/01/05 07:23:44;;;;;;;10.15;7.35;;;;;;;;;;5072830;28;20033;-69
2021/01/05 07:26:10;;;;;;;11.48;8.10;;;;;;;;;;5072895;28;20482;-69
2021/01/05 07:28:38;;;;;;;8.18;5.28;;;;;;;;;;5072957;28;20119;-69
2021/01/05 07:31:03;;;;;;;40.40;25.10;;;;;;;;;;5072982;28;20499;-69
2021/01/05 07:33:29;;;;;;;57.22;31.65;;;;;;;;;;5071517;28;20042;-69
2021/01/05 07:35:54;;;;;;;25.15;14.88;;;;;;;;;;5072780;28;20036;-69
2021/01/05 07:38:23;;;;;;;34.72;22.85;;;;;;;;;;5072844;28;20047;-69
2021/01/05 07:40:48;;;;;;;20.00;13.05;;;;;;;;;;5072816;28;20029;-70
2021/01/05 07:43:14;;;;;;;6.95;5.28;;;;;;;;;;5072849;28;20101;-70
2021/01/05 07:45:39;;;;;;;4.30;3.90;;;;;;;;;;5072648;28;20047;-70
2021/01/05 07:48:05;;;;;;;5.90;4.78;;;;;;;;;;5072589;28;20028;-70
2021/01/05 07:50:30;;;;;;;10.38;7.75;;;;;;;;;;5054918;28;20044;-70
2021/01/05 07:52:57;;;;;;;38.63;22.92;;;;;;;;;;5075672;28;20037;-70
2021/01/05 07:55:24;;;;;;;28.88;19.08;;;;;;;;;;5076375;28;20518;-70
2021/01/05 07:57:50;;;;;;;22.55;16.98;;;;;;;;;;5075264;28;20037;-69
2021/01/05 08:00:17;;;;;;;18.30;15.48;;;;;;;;;;5076421;28;20479;-70
2021/01/05 08:02:43;;;;;;;29.65;19.05;;;;;;;;;;5076084;28;20025;-69
2021/01/05 08:05:13;;;;;;;10.57;6.95;;;;;;;;;;5076138;28;20033;-70
2021/01/05 08:07:38;;;;;;;10.70;8.70;;;;;;;;;;5074586;28;20483;-69
2021/01/05 08:10:05;;;;;;;19.70;12.93;;;;;;;;;;5076293;28;20052;-70
2021/01/05 08:12:30;;;;;;;61.42;30.75;;;;;;;;;;5076339;28;20485;-70
2021/01/05 08:14:56;;;;;;;11.00;5.75;;;;;;;;;;5075982;28;20119;-70
2021/01/05 08:17:21;;;;;;;34.88;23.05;;;;;;;;;;5076113;28;20032;-70
2021/01/05 08:19:47;;;;;;;24.48;17.90;;;;;;;;;;5075871;28;20051;-70
2021/01/05 08:22:13;;;;;;;63.45;44.65;;;;;;;;;;5076032;28;20035;-70
2021/01/05 08:24:38;;;;;;;53.28;36.03;;;;;;;;;;5075897;28;20033;-69
2021/01/05 08:27:07;;;;;;;15.90;11.40;;;;;;;;;;5074605;28;20036;-69
2021/01/05 08:29:33;;;;;;;297.38;219.90;;;;;;;;;;5075910;28;20102;-69
2021/01/05 08:31:58;;;;;;;81.57;57.75;;;;;;;;;;5074568;28;20471;-69
2021/01/05 08:34:23;;;;;;;23.13;16.02;;;;;;;;;;5075666;28;20441;-69
2021/01/05 08:36:49;;;;;;;49.45;30.92;;;;;;;;;;5075746;28;20063;-71
2021/01/05 08:39:14;;;;;;;10.77;7.50;;;;;;;;;;5075596;28;20032;-70
2021/01/05 08:41:44;;;;;;;31.33;18.35;;;;;;;;;;5075596;28;20454;-70
2021/01/05 08:44:10;;;;;;;8.65;4.72;;;;;;;;;;5075617;28;20393;-70
2021/01/05 08:46:35;;;;;;;14.63;8.60;;;;;;;;;;5075633;28;20043;-70
2021/01/05 08:49:01;;;;;;;21.42;13.00;;;;;;;;;;5075590;28;20119;-70
2021/01/05 08:51:27;;;;;;;6.20;3.95;;;;;;;;;;5074302;28;20115;-70
2021/01/05 08:53:52;;;;;;;8.80;5.20;;;;;;;;;;5074676;28;20502;-70
2021/01/05 08:56:20;;;;;;;45.25;19.13;;;;;;;;;;5075673;28;20059;-70
2021/01/05 08:58:45;;;;;;;50.95;25.20;;;;;;;;;;5073998;28;20025;-70
2021/01/05 09:01:11;;;;;;;355.52;194.55;;;;;;;;;;5073634;28;20048;-70
2021/01/05 09:03:36;;;;;;;254.05;162.07;;;;;;;;;;5074442;28;20040;-70
2021/01/05 09:06:02;;;;;;;47.20;33.72;;;;;;;;;;5075230;28;20149;-70
2021/01/05 09:08:30;;;;;;;76.53;63.63;;;;;;;;;;5073994;28;20074;-70
2021/01/05 09:10:57;;;;;;;350.02;284.45;;;;;;;;;;5075337;28;20560;-70
2021/01/05 09:13:24;;;;;;;158.52;113.07;;;;;;;;;;5074863;28;20055;-70
2021/01/05 09:15:50;;;;;;;436.65;301.85;;;;;;;;;;5075007;28;20039;-70
2021/01/05 09:18:15;;;;;;;560.17;371.13;;;;;;;;;;5074948;28;20025;-70
2021/01/05 09:20:41;;;;;;;825.15;562.90;;;;;;;;;;5074929;28;20040;-70
2021/01/05 09:23:07;;;;;;;402.33;321.70;;;;;;;;;;5074733;28;20368;-70
2021/01/05 09:25:33;;;;;;;123.43;102.15;;;;;;;;;;5074774;28;20036;-70
2021/01/05 09:27:58;;;;;;;134.05;91.43;;;;;;;;;;5074644;28;20028;-70
2021/01/05 09:30:24;;;;;;;799.65;457.02;;;;;;;;;;5074738;28;20048;-70
2021/01/05 09:32:49;;;;;;;195.65;108.90;;;;;;;;;;5074622;28;20052;-70
2021/01/05 09:35:15;;;;;;;87.05;59.25;;;;;;;;;;5074504;28;20473;-71
2021/01/05 09:37:41;;;;;;;81.93;65.63;;;;;;;;;;5074653;28;20029;-70
2021/01/05 09:40:07;;;;;;;146.30;105.68;;;;;;;;;;5074822;28;20041;-70
2021/01/05 09:42:33;;;;;;;544.97;380.92;;;;;;;;;;5074609;28;20025;-70
2021/01/05 09:44:58;;;;;;;1040.45;629.22;;;;;;;;;;5073384;28;20048;-71
2021/01/05 09:47:24;;;;;;;434.63;264.95;;;;;;;;;;5074923;28;20126;-71
2021/01/05 09:49:50;;;;;;;327.90;195.25;;;;;;;;;;5074501;28;20032;-71
2021/01/05 09:52:15;;;;;;;226.45;135.43;;;;;;;;;;5074537;28;20043;-71
2021/01/05 09:54:44;;;;;;;1374.30;809.67;;;;;;;;;;5072269;28;20040;-71
2021/01/05 09:57:10;;;;;;;134.43;104.75;;;;;;;;;;5074245;28;20037;-70
2021/01/05 09:59:37;;;;;;;190.93;171.10;;;;;;;;;;5077163;28;20021;-70
2021/01/05 10:02:03;;;;;;;37.58;33.65;;;;;;;;;;5083433;28;20035;-70
2021/01/05 10:04:29;;;;;;;20.92;18.98;;;;;;;;;;5087621;28;20028;-70
2021/01/05 10:06:54;;;;;;;3.88;3.58;;;;;;;;;;5066932;28;20044;-70
2021/01/05 10:09:20;;;;;;;6.70;6.10;;;;;;;;;;5081459;28;20502;-70
2021/01/05 10:11:45;;;;;;;9.50;8.48;;;;;;;;;;5083538;28;20074;-70
2021/01/05 10:14:13;;;;;;;3.20;3.00;;;;;;;;;;5082421;28;20036;-70
2021/01/05 10:16:39;;;;;;;3.67;3.38;;;;;;;;;;5081471;28;20047;-70
2021/01/05 10:19:04;;;;;;;3.05;2.75;;;;;;;;;;5079004;28;20020;-70
2021/01/05 10:21:35;;;;;;;3.90;2.97;;;;;;;;;;5081783;28;20383;-70
2021/01/05 10:24:00;;;;;;;5.15;4.28;;;;;;;;;;5084333;28;20040;-70
2021/01/05 10:26:27;;;;;;;7.15;4.90;;;;;;;;;;5087868;28;20593;-70
2021/01/05 10:28:53;;;;;;;2.50;2.30;;;;;;;;;;5090297;28;20028;-70
2021/01/05 10:31:18;;;;;;;2.42;2.22;;;;;;;;;;5093957;28;20085;-70
2021/01/05 10:33:44;;;;;;;2.10;2.00;;;;;;;;;;5093476;28;20036;-70
2021/01/05 10:36:09;;;;;;;3.30;3.00;;;;;;;;;;5075216;28;20499;-70
2021/01/05 10:38:35;;;;;;;2.70;2.50;;;;;;;;;;5093230;28;20451;-70
2021/01/05 10:41:01;;;;;;;2.30;1.98;;;;;;;;;;5093794;28;20028;-70
2021/01/05 10:43:26;;;;;;;3.92;2.08;;;;;;;;;;5093741;28;20082;-70
2021/01/05 10:45:52;;;;;;;2.08;1.88;;;;;;;;;;5092666;28;20527;-70
2021/01/05 10:48:18;;;;;;;3.22;1.98;;;;;;;;;;5093396;28;20093;-70
2021/01/05 10:50:45;;;;;;;1.77;1.67;;;;;;;;;;5092899;28;20055;-68
2021/01/05 10:53:11;;;;;;;2.60;2.40;;;;;;;;;;5075119;28;20036;-71
2021/01/05 10:55:36;;;;;;;3.55;3.13;;;;;;;;;;5093305;28;20039;-71
2021/01/05 10:58:03;;;;;;;4.75;3.60;;;;;;;;;;5075610;28;20028;-71
2021/01/05 11:00:28;;;;;;;6.85;4.03;;;;;;;;;;5093479;28;20028;-70
2021/01/05 11:02:54;;;;;;;3.70;3.40;;;;;;;;;;5093434;28;20094;-70
2021/01/05 11:05:19;;;;;;;4.07;3.65;;;;;;;;;;5093423;28;20064;-71
2021/01/05 11:07:51;;;;;;;4.07;3.28;;;;;;;;;;5093377;28;20032;-70
2021/01/05 11:10:17;;;;;;;3.75;3.40;;;;;;;;;;5075037;28;20036;-71
2021/01/05 11:12:43;;;;;;;3.83;3.42;;;;;;;;;;5091592;28;20126;-70
2021/01/05 11:15:11;;;;;;;4.18;3.78;;;;;;;;;;5093096;28;20063;-67
2021/01/05 11:17:36;;;;;;;4.38;3.75;;;;;;;;;;5093047;28;20123;-69
2021/01/05 11:20:02;;;;;;;4.00;3.60;;;;;;;;;;5074594;28;20078;-70
2021/01/05 11:22:27;;;;;;;3.85;3.55;;;;;;;;;;5093138;28;20031;-69
2021/01/05 11:24:53;;;;;;;3.60;3.22;;;;;;;;;;5093179;28;20044;-70
2021/01/05 11:27:20;;;;;;;3.75;3.25;;;;;;;;;;5096230;28;20031;-70
2021/01/05 11:29:47;;;;;;;4.07;3.67;;;;;;;;;;5097453;28;20055;-70
2021/01/05 11:32:14;;;;;;;3.80;3.50;;;;;;;;;;5097479;28;20028;-70
2021/01/05 11:34:40;;;;;;;4.55;3.60;;;;;;;;;;5097146;28;20070;-70
2021/01/05 11:37:07;;;;;;;5.10;4.65;;;;;;;;;;5096868;28;20024;-70
2021/01/05 11:39:32;;;;;;;5.22;3.78;;;;;;;;;;5096828;28;20122;-70
2021/01/05 11:42:03;;;;;;;4.85;4.00;;;;;;;;;;5097200;28;20107;-70
2021/01/05 11:44:28;;;;;;;4.13;3.30;;;;;;;;;;5097187;28;20111;-70
2021/01/05 11:46:54;;;;;;;5.63;3.88;;;;;;;;;;5079669;28;20155;-70
2021/01/05 11:49:20;;;;;;;6.70;4.40;;;;;;;;;;5079144;28;20043;-69
2021/01/05 11:51:49;;;;;;;5.13;4.13;;;;;;;;;;5096372;28;20020;-69
2021/01/05 11:54:14;;;;;;;5.03;4.22;;;;;;;;;;5065960;28;20052;-70
2021/01/05 11:56:40;;;;;;;5.07;3.78;;;;;;;;;;5092518;28;20394;-70
2021/01/05 11:59:05;;;;;;;6.05;4.43;;;;;;;;;;5096841;28;20040;-70
2021/01/05 12:01:35;;;;;;;5.00;3.92;;;;;;;;;;5096898;28;20036;-70
2021/01/05 12:04:01;;;;;;;4.22;3.70;;;;;;;;;;5078268;28;20074;-69
2021/01/05 12:06:26;;;;;;;4.88;3.85;;;;;;;;;;5096686;28;20060;-69
2021/01/05 12:08:52;;;;;;;5.25;4.05;;;;;;;;;;5096711;28;20122;-69
2021/01/05 12:11:28;;;;;;;6.07;4.28;;;;;;;;;;5096513;28;20066;-69
2021/01/05 12:13:54;;;;;;;4.78;4.22;;;;;;;;;;5096327;28;20082;-69
2021/01/05 12:16:26;;;;;;;4.78;4.32;;;;;;;;;;5096402;28;20024;-69
2021/01/05 12:18:53;;;;;;;6.00;4.60;;;;;;;;;;5096300;28;20048;-69
2021/01/05 12:21:22;;;;;;;6.97;5.05;;;;;;;;;;5096609;28;20039;-69
2021/01/05 12:23:48;;;;;;;6.75;4.95;;;;;;;;;;5096398;28;20044;-69
2021/01/05 12:26:20;;;;;;;6.72;4.70;;;;;;;;;;5096399;28;20161;-69
2021/01/05 12:28:47;;;;;;;6.55;4.93;;;;;;;;;;5096362;28;20040;-69
2021/01/05 12:31:12;;;;;;;7.63;5.00;;;;;;;;;;5096231;28;20049;-69
2021/01/05 12:33:38;;;;;;;7.85;5.28;;;;;;;;;;5096211;28;20124;-69
2021/01/05 12:36:03;;;;;;;6.95;4.60;;;;;;;;;;5096122;28;20047;-69
2021/01/05 12:38:29;;;;;;;6.65;4.97;;;;;;;;;;5094491;28;20044;-69
2021/01/05 12:40:54;;;;;;;5.63;4.80;;;;;;;;;;5095933;28;20024;-69
2021/01/05 12:43:20;;;;;;;6.88;4.65;;;;;;;;;;5096100;28;20051;-69
2021/01/05 12:45:45;;;;;;;5.15;4.57;;;;;;;;;;5095983;28;20032;-69
2021/01/05 12:48:11;;;;;;;5.05;4.07;;;;;;;;;;5095988;28;20044;-69
2021/01/05 12:50:36;;;;;;;4.65;4.25;;;;;;;;;;5096015;28;20032;-69
2021/01/05 12:53:02;;;;;;;4.32;4.00;;;;;;;;;;5094635;28;20094;-69
2021/01/05 12:55:27;;;;;;;4.50;4.10;;;;;;;;;;5095814;28;20063;-69
2021/01/05 12:57:53;;;;;;;5.55;4.60;;;;;;;;;;5095701;28;20519;-69
2021/01/05 13:00:20;;;;;;;6.80;4.45;;;;;;;;;;5077504;28;20126;-69
2021/01/05 13:02:45;;;;;;;6.68;4.53;;;;;;;;;;5077613;28;20051;-69
2021/01/05 13:05:11;;;;;;;7.30;5.10;;;;;;;;;;5095733;28;20482;-69
2021/01/05 13:07:36;;;;;;;6.22;4.90;;;;;;;;;;5095900;28;20458;-69
2021/01/05 13:10:02;;;;;;;6.20;4.60;;;;;;;;;;5077362;28;20391;-69
2021/01/05 13:12:28;;;;;;;5.40;4.53;;;;;;;;;;5095347;28;20427;-69
2021/01/05 13:14:53;;;;;;;6.60;4.70;;;;;;;;;;5095813;28;20133;-69
2021/01/05 13:17:19;;;;;;;4.35;3.95;;;;;;;;;;5095615;28;20070;-69
2021/01/05 13:19:45;;;;;;;4.95;4.18;;;;;;;;;;5077107;28;20394;-69
2021/01/05 13:22:10;;;;;;;6.38;4.40;;;;;;;;;;5095462;28;20020;-69
2021/01/05 13:24:36;;;;;;;5.72;4.20;;;;;;;;;;5095305;28;20040;-69
2021/01/05 13:27:04;;;;;;;7.72;4.85;;;;;;;;;;5095002;28;20073;-70
2021/01/05 13:29:38;;;;;;;9.40;5.47;;;;;;;;;;5095012;28;20036;-69
2021/01/05 13:32:18;;;;;;;8.27;4.70;;;;;;;;;;5094887;28;20486;-69
2021/01/05 13:34:44;;;;;;;7.53;4.90;;;;;;;;;;5095089;28;20032;-69
2021/01/05 13:37:11;;;;;;;5.05;4.15;;;;;;;;;;5095057;28;20042;-69
2021/01/05 13:39:37;;;;;;;6.32;4.40;;;;;;;;;;5095050;28;20387;-74
2021/01/05 13:42:05;;;;;;;6.03;4.60;;;;;;;;;;5095023;28;20024;-54
2021/01/05 13:44:30;;;;;;;7.25;5.10;;;;;;;;;;5095031;28;20040;-54
2021/01/05 13:46:59;;;;;;;8.77;5.65;;;;;;;;;;5094649;28;20016;-72
2021/01/05 13:49:25;;;;;;;10.93;6.90;;;;;;;;;;5094517;28;20047;-71
2021/01/05 13:51:51;;;;;;;10.55;6.55;;;;;;;;;;5094845;28;20032;-71
2021/01/05 13:54:18;;;;;;;12.77;7.47;;;;;;;;;;5058508;28;20036;-71
2021/01/05 13:56:44;;;;;;;11.52;7.05;;;;;;;;;;5094353;28;20044;-71
2021/01/05 13:59:09;;;;;;;10.80;7.15;;;;;;;;;;5093284;28;20031;-71
2021/01/05 14:01:35;;;;;;;13.88;7.28;;;;;;;;;;5094467;28;20028;-71
2021/01/05 14:04:00;;;;;;;10.38;6.82;;;;;;;;;;5076079;28;20028;-71
2021/01/05 14:06:27;;;;;;;9.43;6.20;;;;;;;;;;5094251;28;20036;-71
2021/01/05 14:08:54;;;;;;;10.23;7.22;;;;;;;;;;5094131;28;20040;-71
2021/01/05 14:11:20;;;;;;;10.80;7.22;;;;;;;;;;5094179;28;20032;-71
2021/01/05 14:13:46;;;;;;;13.13;7.85;;;;;;;;;;5075640;28;20032;-71
2021/01/05 14:16:13;;;;;;;13.52;8.50;;;;;;;;;;5094092;28;20366;-74
2021/01/05 14:18:39;;;;;;;14.68;8.77;;;;;;;;;;5093951;28;20050;-75
2021/01/05 14:21:06;;;;;;;11.85;8.18;;;;;;;;;;5076242;28;20064;-76
2021/01/05 14:23:31;;;;;;;13.32;8.00;;;;;;;;;;5094365;28;20058;-75
2021/01/05 14:26:01;;;;;;;11.88;7.68;;;;;;;;;;5094356;28;20130;-75
2021/01/05 14:28:27;;;;;;;12.10;7.38;;;;;;;;;;5093605;28;20036;-76
2021/01/05 14:30:53;;;;;;;14.43;8.63;;;;;;;;;;5093308;28;20397;-67
2021/01/05 14:33:18;;;;;;;13.35;8.32;;;;;;;;;;5093677;28;20093;-67
2021/01/05 14:35:44;;;;;;;9.85;6.65;;;;;;;;;;5094009;28;20042;-67
2021/01/05 14:38:10;;;;;;;12.45;8.00;;;;;;;;;;5094175;28;20026;-67
2021/01/05 14:40:35;;;;;;;10.68;7.47;;;;;;;;;;5093736;28;20501;-67